Terminal Aerodrome Forecast
Issued by NWS Grand Forks, ND

Home | Current Version | Previous Version | Text Only | Print | Product List | Glossary On
Versions: 1 2 3 4 5 6 7 8 9 10 11 12 13 14 15 16 17 18 19
233
FTUS43 KFGF 231736 CCA
TAFGFK
TAF COR
KGFK 231736Z 2318/2418 36012KT P6SM -TSRA OVC035CB
     FM231900 17010KT P6SM OVC050
     FM232100 15009KT P6SM VCTS BKN060CB
     FM240000 19007KT P6SM SCT200
     FM240300 26007KT P6SM FEW200
     FM241500 29014G20KT P6SM FEW250=

USA.gov is the U.S. government's official web portal to all federal, state and local government web resources and services.